createdAt,value
2023-04-16T00:02:19.435Z,4.30
2023-04-16T00:04:47.207Z,4.30
2023-04-16T00:07:14.732Z,4.20
2023-04-16T00:09:42.165Z,4.20
2023-04-16T00:12:09.716Z,4.20
2023-04-16T00:14:37.169Z,4.20
2023-04-16T00:17:04.795Z,4.20
2023-04-16T00:19:32.324Z,4.20
2023-04-16T00:21:59.718Z,4.20
2023-04-16T00:24:27.209Z,4.20
2023-04-16T00:26:54.609Z,4.20
2023-04-16T00:29:22.142Z,4.20
2023-04-16T00:31:49.656Z,4.20
2023-04-16T00:34:17.176Z,4.20
2023-04-16T00:36:44.670Z,4.10
2023-04-16T00:39:12.175Z,4.10
2023-04-16T00:41:39.754Z,4.10
2023-04-16T00:44:07.245Z,4.10
2023-04-16T00:46:35.496Z,4.10
2023-04-16T00:49:03.888Z,4.10
2023-04-16T00:51:31.835Z,4.10
2023-04-16T00:53:59.422Z,4.10
2023-04-16T00:56:27.242Z,4.10
2023-04-16T00:58:58.922Z,4.00
2023-04-16T01:01:26.527Z,4.00
2023-04-16T01:03:55.913Z,4.00
2023-04-16T01:06:23.734Z,4.00
2023-04-16T01:08:51.391Z,4.00
2023-04-16T01:11:19.043Z,4.00
2023-04-16T01:13:46.555Z,4.00
2023-04-16T01:16:14.747Z,4.00
2023-04-16T01:18:42.624Z,4.00
2023-04-16T01:21:10.207Z,4.00
2023-04-16T01:23:37.810Z,4.00
2023-04-16T01:26:05.341Z,4.00
2023-04-16T01:28:32.941Z,3.90
2023-04-16T01:31:00.779Z,3.90
2023-04-16T01:33:38.414Z,3.90
2023-04-16T01:36:07.673Z,3.90
2023-04-16T01:38:35.145Z,3.90
2023-04-16T01:41:02.772Z,3.90
2023-04-16T01:43:30.239Z,3.90
2023-04-16T01:46:15.067Z,3.90
2023-04-16T01:48:43.138Z,3.90
2023-04-16T01:51:10.918Z,3.90
2023-04-16T01:53:38.492Z,3.90
2023-04-16T01:56:06.682Z,3.90
2023-04-16T01:58:34.598Z,3.90
2023-04-16T02:01:02.586Z,3.90
2023-04-16T02:03:31.386Z,3.90
2023-04-16T02:05:59.082Z,3.90
2023-04-16T02:08:29.442Z,3.90
2023-04-16T02:10:57.359Z,3.90
2023-04-16T02:13:26.251Z,3.90
2023-04-16T02:15:53.854Z,3.90
2023-04-16T02:18:35.781Z,3.90
2023-04-16T02:21:04.034Z,3.90
2023-04-16T02:23:31.578Z,3.90
2023-04-16T02:26:01.053Z,3.90
2023-04-16T02:28:29.258Z,4.00
2023-04-16T02:30:57.037Z,4.00
2023-04-16T02:33:29.100Z,3.90
2023-04-16T02:36:01.677Z,4.00
2023-04-16T02:38:29.231Z,4.00
2023-04-16T02:40:56.916Z,4.00
2023-04-16T02:43:24.440Z,4.00
2023-04-16T02:45:52.036Z,3.90
2023-04-16T02:48:19.488Z,4.00
2023-04-16T02:50:46.994Z,4.00
2023-04-16T02:53:14.606Z,4.00
2023-04-16T02:55:42.226Z,4.00
2023-04-16T02:58:09.797Z,4.00
2023-04-16T03:00:38.247Z,4.00
2023-04-16T03:03:05.829Z,4.00
2023-04-16T03:05:33.372Z,4.00
2023-04-16T03:08:00.982Z,4.00
2023-04-16T03:10:28.499Z,3.90
2023-04-16T03:12:56.087Z,4.00
2023-04-16T03:15:24.233Z,4.00
2023-04-16T03:17:51.741Z,3.90
2023-04-16T03:20:19.808Z,3.90
2023-04-16T03:22:47.763Z,4.00
2023-04-16T03:25:15.374Z,3.90
2023-04-16T03:27:42.950Z,3.80
2023-04-16T03:30:12.784Z,3.90
2023-04-16T03:32:41.214Z,3.90
2023-04-16T03:35:09.750Z,3.90
2023-04-16T03:37:38.176Z,3.90
2023-04-16T03:40:07.103Z,3.90
2023-04-16T03:42:34.778Z,3.90
2023-04-16T03:45:03.921Z,3.90
2023-04-16T03:47:32.722Z,3.90
2023-04-16T03:50:03.242Z,3.90
2023-04-16T03:52:30.906Z,3.90
2023-04-16T03:54:58.385Z,3.90
2023-04-16T03:57:28.425Z,3.90
2023-04-16T04:00:01.642Z,3.90
2023-04-16T04:02:42.146Z,3.90
2023-04-16T04:05:17.098Z,3.90
2023-04-16T04:07:46.152Z,3.90
2023-04-16T04:10:15.045Z,3.90
2023-04-16T04:12:43.561Z,3.90
2023-04-16T04:15:11.874Z,3.90
2023-04-16T04:17:39.450Z,3.90
2023-04-16T04:20:07.452Z,3.90
2023-04-16T04:22:34.946Z,3.90
2023-04-16T04:25:02.472Z,3.90
2023-04-16T04:27:32.691Z,3.90
2023-04-16T04:30:00.372Z,3.90
2023-04-16T04:32:28.510Z,4.00
2023-04-16T04:34:56.252Z,3.90
2023-04-16T04:37:23.926Z,4.00
2023-04-16T04:39:51.473Z,4.00
2023-04-16T04:42:20.621Z,4.00
2023-04-16T04:44:48.344Z,4.00
2023-04-16T04:47:15.996Z,4.00
2023-04-16T04:49:43.517Z,4.00
2023-04-16T04:52:11.541Z,4.00
2023-04-16T04:54:41.704Z,4.00
2023-04-16T04:57:09.325Z,4.00
2023-04-16T04:59:36.808Z,4.00
2023-04-16T05:02:04.377Z,4.00
2023-04-16T05:04:31.796Z,4.10
2023-04-16T05:06:59.329Z,4.00
2023-04-16T05:09:26.821Z,4.10
2023-04-16T05:11:54.269Z,4.10
2023-04-16T05:14:21.780Z,4.10
2023-04-16T05:16:49.306Z,4.20
2023-04-16T05:19:17.342Z,4.20
2023-04-16T05:21:44.819Z,4.20
2023-04-16T05:24:14.800Z,4.20
2023-04-16T05:26:42.500Z,4.20
2023-04-16T05:29:10.190Z,4.20
2023-04-16T05:31:38.353Z,4.20
2023-04-16T05:34:05.867Z,4.20
2023-04-16T05:36:33.493Z,4.20
2023-04-16T05:39:00.973Z,4.20
2023-04-16T05:41:28.501Z,4.20
2023-04-16T05:43:56.241Z,4.20
2023-04-16T05:46:24.361Z,4.20
2023-04-16T05:48:51.948Z,4.20
2023-04-16T05:51:20.080Z,4.30
2023-04-16T05:53:47.520Z,4.30
2023-04-16T05:56:14.989Z,4.30
2023-04-16T05:58:42.496Z,4.30
2023-04-16T06:01:11.403Z,4.30
2023-04-16T06:03:39.001Z,4.40
2023-04-16T06:06:08.814Z,4.50
2023-04-16T06:08:36.448Z,4.50
2023-04-16T06:11:04.181Z,4.50
2023-04-16T06:13:31.685Z,4.50
2023-04-16T06:15:59.163Z,4.50
2023-04-16T06:18:26.660Z,4.50
2023-04-16T06:20:54.315Z,4.60
2023-04-16T06:23:21.849Z,4.60
2023-04-16T06:25:49.393Z,4.60
2023-04-16T06:28:16.845Z,4.60
2023-04-16T06:30:44.761Z,4.60
2023-04-16T06:33:12.528Z,4.70
2023-04-16T06:35:40.020Z,4.80
2023-04-16T06:38:07.508Z,4.90
2023-04-16T06:40:37.501Z,4.90
2023-04-16T06:43:05.468Z,4.90
2023-04-16T06:45:33.945Z,4.90
2023-04-16T06:48:03.428Z,4.90
2023-04-16T06:50:31.095Z,4.90
2023-04-16T06:52:58.709Z,4.90
2023-04-16T06:55:26.169Z,5.00
2023-04-16T06:57:53.691Z,5.00
2023-04-16T07:00:21.230Z,5.00
2023-04-16T07:02:48.797Z,5.00
2023-04-16T07:05:16.451Z,5.10
2023-04-16T07:07:43.930Z,5.00
2023-04-16T07:10:11.424Z,5.10
2023-04-16T07:12:39.170Z,5.10
2023-04-16T07:15:07.495Z,5.10
2023-04-16T07:17:35.005Z,5.20
2023-04-16T07:20:02.510Z,5.30
2023-04-16T07:22:30.028Z,5.30
2023-04-16T07:24:57.485Z,5.30
2023-04-16T07:27:25.043Z,5.30
2023-04-16T07:29:52.498Z,5.40
2023-04-16T07:32:22.444Z,5.30
2023-04-16T07:34:49.960Z,5.40
2023-04-16T07:37:17.340Z,5.50
2023-04-16T07:39:44.773Z,5.50
2023-04-16T07:42:12.255Z,5.60
2023-04-16T07:44:39.761Z,5.70
2023-04-16T07:47:07.272Z,5.60
2023-04-16T07:49:34.654Z,5.70
2023-04-16T07:52:02.425Z,5.80
2023-04-16T07:54:30.299Z,5.90
2023-04-16T07:56:57.818Z,5.90
2023-04-16T07:59:25.741Z,5.90
2023-04-16T08:01:54.285Z,5.80
2023-04-16T08:04:25.749Z,5.90
2023-04-16T08:06:54.222Z,5.90
2023-04-16T08:09:23.320Z,5.80
2023-04-16T08:11:50.961Z,5.90
2023-04-16T08:14:18.504Z,5.80
2023-04-16T08:16:46.104Z,6.00
2023-04-16T08:19:13.578Z,5.90
2023-04-16T08:21:41.419Z,6.00
2023-04-16T08:24:09.044Z,6.10
2023-04-16T08:26:36.606Z,6.20
2023-04-16T08:29:04.155Z,6.30
2023-04-16T08:31:32.181Z,6.40
2023-04-16T08:34:00.903Z,6.40
2023-04-16T08:36:28.464Z,6.50
2023-04-16T08:38:56.002Z,6.80
2023-04-16T08:41:25.126Z,7.10
2023-04-16T08:43:56.876Z,7.30
2023-04-16T08:46:28.903Z,7.00
2023-04-16T08:49:00.516Z,7.00
2023-04-16T08:51:30.004Z,7.10
2023-04-16T08:54:08.515Z,7.00
2023-04-16T08:56:37.444Z,7.10
2023-04-16T08:59:07.838Z,7.10
2023-04-16T09:01:36.233Z,6.90
2023-04-16T09:04:05.087Z,6.90
2023-04-16T09:06:33.671Z,6.90
2023-04-16T09:09:04.588Z,7.00
2023-04-16T09:11:32.292Z,6.90
2023-04-16T09:14:00.957Z,7.00
2023-04-16T09:16:33.336Z,7.00
2023-04-16T09:19:00.995Z,7.10
2023-04-16T09:21:28.544Z,7.20
2023-04-16T09:23:56.812Z,7.40
2023-04-16T09:26:24.607Z,7.50
2023-04-16T09:28:52.212Z,7.60
2023-04-16T09:31:20.070Z,7.50
2023-04-16T09:34:08.489Z,7.60
2023-04-16T09:36:36.888Z,7.70
2023-04-16T09:39:04.524Z,7.90
2023-04-16T09:41:36.048Z,7.90
2023-04-16T09:44:05.154Z,8.00
2023-04-16T09:46:40.482Z,8.00
2023-04-16T09:49:15.465Z,8.10
2023-04-16T09:51:44.306Z,8.10
2023-04-16T09:54:11.964Z,8.50
2023-04-16T09:56:42.088Z,8.70
2023-04-16T09:59:21.467Z,8.80
2023-04-16T10:01:50.085Z,8.90
2023-04-16T10:04:17.817Z,8.80
2023-04-16T10:06:48.495Z,8.90
2023-04-16T10:09:16.173Z,9.00
2023-04-16T10:11:43.884Z,9.20
2023-04-16T10:14:11.394Z,9.40
2023-04-16T10:16:41.205Z,9.40
2023-04-16T10:19:09.193Z,9.50
2023-04-16T10:21:37.039Z,9.70
2023-04-16T10:24:04.999Z,9.70
2023-04-16T10:26:33.573Z,9.70
2023-04-16T10:29:01.763Z,9.60
2023-04-16T10:31:29.535Z,9.70
2023-04-16T10:33:58.717Z,9.80
2023-04-16T10:36:26.727Z,9.80
2023-04-16T10:38:58.806Z,9.40
2023-04-16T10:41:27.421Z,8.90
2023-04-16T10:44:09.817Z,9.00
2023-04-16T10:46:40.192Z,9.10
2023-04-16T10:49:19.438Z,9.30
2023-04-16T10:51:54.766Z,9.50
2023-04-16T10:54:29.197Z,9.60
2023-04-16T10:56:59.162Z,9.60
2023-04-16T10:59:31.972Z,9.90
2023-04-16T11:02:04.128Z,9.90
2023-04-16T11:04:39.522Z,10.10
2023-04-16T11:07:11.641Z,10.10
2023-04-16T11:09:53.922Z,10.00
2023-04-16T11:12:24.060Z,10.00
2023-04-16T11:14:58.806Z,10.00
2023-04-16T11:17:30.779Z,10.10
2023-04-16T11:19:58.414Z,9.80
2023-04-16T11:22:26.936Z,9.70
2023-04-16T11:24:56.501Z,9.90
2023-04-16T11:27:24.717Z,9.80
2023-04-16T11:30:04.260Z,9.60
2023-04-16T11:32:33.930Z,9.70
2023-04-16T11:35:13.480Z,9.50
2023-04-16T11:37:42.328Z,9.50
2023-04-16T11:40:10.589Z,9.50
2023-04-16T11:42:43.448Z,9.30
2023-04-16T11:45:12.536Z,9.10
2023-04-16T11:47:46.030Z,9.00
2023-04-16T11:50:29.729Z,9.20
2023-04-16T11:53:03.205Z,9.30
2023-04-16T11:55:31.120Z,9.40
2023-04-16T11:58:12.791Z,9.40
2023-04-16T12:00:41.596Z,9.40
2023-04-16T12:03:09.330Z,9.30
2023-04-16T12:05:39.188Z,9.20
2023-04-16T12:08:09.447Z,9.00
2023-04-16T12:10:54.015Z,9.00
2023-04-16T12:13:21.678Z,9.10
2023-04-16T12:15:54.237Z,8.80
2023-04-16T12:18:23.697Z,8.80
2023-04-16T12:20:51.420Z,8.90
2023-04-16T12:23:33.353Z,8.90
2023-04-16T12:26:10.632Z,8.90
2023-04-16T12:28:39.298Z,8.80
2023-04-16T12:31:09.863Z,8.90
2023-04-16T12:33:37.459Z,9.00
2023-04-16T12:36:18.924Z,9.10
2023-04-16T12:38:46.544Z,9.00
2023-04-16T12:41:13.969Z,8.90
2023-04-16T12:43:41.548Z,9.10
2023-04-16T12:46:09.069Z,9.10
2023-04-16T12:48:37.893Z,9.10
2023-04-16T12:51:05.925Z,9.10
2023-04-16T12:53:33.425Z,9.30
2023-04-16T12:56:00.913Z,9.40
2023-04-16T12:58:28.613Z,9.40
2023-04-16T13:00:56.260Z,9.20
2023-04-16T13:03:23.970Z,9.20
2023-04-16T13:05:51.773Z,9.20
2023-04-16T13:08:19.292Z,9.10
2023-04-16T13:10:46.831Z,9.00
2023-04-16T13:13:14.258Z,9.10
2023-04-16T13:15:41.707Z,9.20
2023-04-16T13:18:09.378Z,9.30
2023-04-16T13:20:36.844Z,9.30
2023-04-16T13:23:07.057Z,9.40
2023-04-16T13:25:34.861Z,9.40
2023-04-16T13:28:02.371Z,9.60
2023-04-16T13:30:29.838Z,9.60
2023-04-16T13:32:57.417Z,9.30
2023-04-16T13:35:25.873Z,9.00
2023-04-16T13:37:53.381Z,8.90
2023-04-16T13:40:21.041Z,9.00
2023-04-16T13:42:48.510Z,8.90
2023-04-16T13:45:16.077Z,8.90
2023-04-16T13:47:43.768Z,8.90
2023-04-16T13:50:11.329Z,8.80
2023-04-16T13:52:38.829Z,8.80
2023-04-16T13:55:06.760Z,8.80
2023-04-16T13:57:34.200Z,8.80
2023-04-16T14:00:02.919Z,8.80
2023-04-16T14:02:32.668Z,8.70
2023-04-16T14:05:00.251Z,8.60
2023-04-16T14:07:27.714Z,8.60
2023-04-16T14:09:55.405Z,8.70
2023-04-16T14:12:22.987Z,8.70
2023-04-16T14:14:50.524Z,8.70
2023-04-16T14:17:18.103Z,8.70
2023-04-16T14:19:45.579Z,8.60
2023-04-16T14:22:13.063Z,8.60
2023-04-16T14:24:42.021Z,8.70
2023-04-16T14:27:09.570Z,8.70
2023-04-16T14:29:37.016Z,8.70
2023-04-16T14:32:04.871Z,8.60
2023-04-16T14:34:32.447Z,8.60
2023-04-16T14:37:00.248Z,8.50
2023-04-16T14:39:27.816Z,8.50
2023-04-16T14:41:55.343Z,8.50
2023-04-16T14:44:23.004Z,8.50
2023-04-16T14:46:50.435Z,8.50
2023-04-16T14:49:18.013Z,8.40
2023-04-16T14:51:46.438Z,8.50
2023-04-16T14:54:14.021Z,8.40
2023-04-16T14:56:41.649Z,8.50
2023-04-16T14:59:10.100Z,8.60
2023-04-16T15:01:39.793Z,8.70
2023-04-16T15:04:07.762Z,8.70
2023-04-16T15:06:36.024Z,8.70
2023-04-16T15:09:04.137Z,8.70
2023-04-16T15:11:31.783Z,8.60
2023-04-16T15:13:59.307Z,8.60
2023-04-16T15:16:26.895Z,8.60
2023-04-16T15:18:54.911Z,8.60
2023-04-16T15:21:22.472Z,8.50
2023-04-16T15:23:50.015Z,8.60
2023-04-16T15:26:17.549Z,8.50
2023-04-16T15:28:45.064Z,8.50
2023-04-16T15:31:12.584Z,8.50
2023-04-16T15:33:40.478Z,8.40
2023-04-16T15:36:08.111Z,8.40
2023-04-16T15:38:35.583Z,8.40
2023-04-16T15:41:03.107Z,8.40
2023-04-16T15:43:30.817Z,8.50
2023-04-16T15:45:58.355Z,8.50
2023-04-16T15:48:25.930Z,8.60
2023-04-16T15:50:54.510Z,8.80
2023-04-16T15:53:22.390Z,9.20
2023-04-16T15:55:52.555Z,9.00
2023-04-16T15:58:20.989Z,9.20
2023-04-16T16:00:50.198Z,9.20
2023-04-16T16:03:18.698Z,9.20
2023-04-16T16:05:47.766Z,9.10
2023-04-16T16:08:15.981Z,8.90
2023-04-16T16:10:43.647Z,8.80
2023-04-16T16:13:14.019Z,8.60
2023-04-16T16:15:42.620Z,8.80
2023-04-16T16:18:10.180Z,8.90
2023-04-16T16:20:37.730Z,8.80
2023-04-16T16:23:05.244Z,8.80
2023-04-16T16:25:32.848Z,8.60
2023-04-16T16:28:00.749Z,8.60
2023-04-16T16:30:28.229Z,8.30
2023-04-16T16:32:55.731Z,8.00
2023-04-16T16:35:23.452Z,7.80
2023-04-16T16:37:55.428Z,7.80
2023-04-16T16:40:23.553Z,7.70
2023-04-16T16:42:51.029Z,7.60
2023-04-16T16:45:18.700Z,7.50
2023-04-16T16:47:46.820Z,7.50
2023-04-16T16:50:27.031Z,7.50
2023-04-16T16:52:54.509Z,7.50
2023-04-16T16:55:22.154Z,7.50
2023-04-16T16:57:50.029Z,7.50
2023-04-16T17:00:19.972Z,7.50
2023-04-16T17:02:48.465Z,7.50
2023-04-16T17:05:16.620Z,7.40
2023-04-16T17:07:44.257Z,7.40
2023-04-16T17:10:13.349Z,7.30
2023-04-16T17:12:41.000Z,7.20
2023-04-16T17:15:09.025Z,7.20
2023-04-16T17:17:36.822Z,7.10
2023-04-16T17:20:09.240Z,7.10
2023-04-16T17:22:38.567Z,7.00
2023-04-16T17:25:07.847Z,7.00
2023-04-16T17:27:35.839Z,6.90
2023-04-16T17:30:05.536Z,6.90
2023-04-16T17:32:33.339Z,6.80
2023-04-16T17:35:03.970Z,6.80
2023-04-16T17:37:31.887Z,6.80
2023-04-16T17:39:59.493Z,6.90
2023-04-16T17:42:26.958Z,6.90
2023-04-16T17:44:54.463Z,6.70
2023-04-16T17:47:21.927Z,6.60
2023-04-16T17:49:52.581Z,6.50
2023-04-16T17:52:21.313Z,6.50
2023-04-16T17:54:49.348Z,6.50
2023-04-16T17:57:16.865Z,6.40
2023-04-16T17:59:44.438Z,6.40
2023-04-16T18:02:11.981Z,6.30
2023-04-16T18:04:39.600Z,6.20
2023-04-16T18:07:07.169Z,6.00
2023-04-16T18:09:34.594Z,5.70
2023-04-16T18:12:02.818Z,5.60
2023-04-16T18:14:30.303Z,5.50
2023-04-16T18:16:58.311Z,5.40
2023-04-16T18:19:25.803Z,5.40
2023-04-16T18:21:53.307Z,5.30
2023-04-16T18:24:21.296Z,5.30
2023-04-16T18:26:48.762Z,5.20
2023-04-16T18:29:17.830Z,5.10
2023-04-16T18:31:45.770Z,4.90
2023-04-16T18:34:13.223Z,4.80
2023-04-16T18:36:40.851Z,4.80
2023-04-16T18:39:08.402Z,4.80
2023-04-16T18:41:37.254Z,4.60
2023-04-16T18:44:04.826Z,4.40
2023-04-16T18:46:32.414Z,4.30
2023-04-16T18:48:59.980Z,4.20
2023-04-16T18:51:27.510Z,4.10
2023-04-16T18:53:54.988Z,4.10
2023-04-16T18:56:22.476Z,4.20
2023-04-16T18:58:50.100Z,4.30
2023-04-16T19:01:17.944Z,4.40
2023-04-16T19:03:45.697Z,4.50
2023-04-16T19:06:13.237Z,4.50
2023-04-16T19:08:40.798Z,4.60
2023-04-16T19:11:08.298Z,4.50
2023-04-16T19:13:36.559Z,4.50
2023-04-16T19:16:06.170Z,4.30
2023-04-16T19:18:33.824Z,4.00
2023-04-16T19:21:01.695Z,3.80
2023-04-16T19:23:29.556Z,3.90
2023-04-16T19:25:57.772Z,4.00
2023-04-16T19:28:25.827Z,4.10
2023-04-16T19:30:54.190Z,4.10
2023-04-16T19:33:21.853Z,4.10
2023-04-16T19:35:49.356Z,4.00
2023-04-16T19:38:16.893Z,3.90
2023-04-16T19:40:46.628Z,4.00
2023-04-16T19:43:14.734Z,4.10
2023-04-16T19:45:46.649Z,4.00
2023-04-16T19:48:14.672Z,3.80
2023-04-16T19:50:42.927Z,3.80
2023-04-16T19:53:11.705Z,3.80
2023-04-16T19:55:40.032Z,3.90
2023-04-16T19:58:08.377Z,4.00
2023-04-16T20:00:41.995Z,4.00
2023-04-16T20:03:09.672Z,3.90
2023-04-16T20:05:37.197Z,3.80
2023-04-16T20:08:04.951Z,3.80
2023-04-16T20:10:32.481Z,3.90
2023-04-16T20:12:59.919Z,3.90
2023-04-16T20:15:27.442Z,4.00
2023-04-16T20:17:56.219Z,4.10
2023-04-16T20:20:23.994Z,4.20
2023-04-16T20:22:51.564Z,4.20
2023-04-16T20:25:19.340Z,4.30
2023-04-16T20:27:47.306Z,4.40
2023-04-16T20:30:14.976Z,4.40
2023-04-16T20:32:42.566Z,4.30
2023-04-16T20:35:11.362Z,4.40
2023-04-16T20:37:39.932Z,4.30
2023-04-16T20:40:09.287Z,4.30
2023-04-16T20:42:36.774Z,4.30
2023-04-16T20:45:04.851Z,4.30
2023-04-16T20:47:36.193Z,4.30
2023-04-16T20:50:03.797Z,4.30
2023-04-16T20:52:31.411Z,4.30
2023-04-16T20:54:58.866Z,4.40
2023-04-16T20:57:28.038Z,4.40
2023-04-16T20:59:56.445Z,4.40
2023-04-16T21:02:24.288Z,4.40
2023-04-16T21:04:52.170Z,4.40
2023-04-16T21:07:19.944Z,4.50
2023-04-16T21:09:47.483Z,4.40
2023-04-16T21:12:14.939Z,4.50
2023-04-16T21:14:42.400Z,4.50
2023-04-16T21:17:09.824Z,4.50
2023-04-16T21:19:37.357Z,4.60
2023-04-16T21:22:05.296Z,4.60
2023-04-16T21:24:32.888Z,4.60
2023-04-16T21:27:01.739Z,4.50
2023-04-16T21:29:29.773Z,4.60
2023-04-16T21:31:57.447Z,4.50
2023-04-16T21:34:24.961Z,4.50
2023-04-16T21:36:52.418Z,4.60
2023-04-16T21:39:21.617Z,4.50
2023-04-16T21:41:49.186Z,4.50
2023-04-16T21:44:16.842Z,4.60
2023-04-16T21:46:44.479Z,4.60
2023-04-16T21:49:12.298Z,4.60
2023-04-16T21:51:40.695Z,4.70
2023-04-16T21:54:08.398Z,4.60
2023-04-16T21:56:35.968Z,4.60
2023-04-16T21:59:03.650Z,4.50
2023-04-16T22:01:31.367Z,4.50
2023-04-16T22:03:59.275Z,4.50
2023-04-16T22:06:27.212Z,4.50
2023-04-16T22:08:54.785Z,4.50
2023-04-16T22:11:22.582Z,4.40
2023-04-16T22:13:50.218Z,4.50
2023-04-16T22:16:17.844Z,4.50
2023-04-16T22:18:46.316Z,4.50
2023-04-16T22:21:13.827Z,4.50
2023-04-16T22:23:41.362Z,4.50
2023-04-16T22:26:09.153Z,4.50
2023-04-16T22:28:36.594Z,4.50
2023-04-16T22:31:04.217Z,4.50
2023-04-16T22:33:31.794Z,4.60
2023-04-16T22:36:00.194Z,4.60
2023-04-16T22:38:27.685Z,4.60
2023-04-16T22:40:55.319Z,4.60
2023-04-16T22:43:22.947Z,4.60
2023-04-16T22:45:50.524Z,4.60
2023-04-16T22:48:18.687Z,4.60
2023-04-16T22:50:48.582Z,4.60
2023-04-16T22:53:16.269Z,4.50
2023-04-16T22:55:43.713Z,4.50
2023-04-16T22:58:11.170Z,4.50
2023-04-16T23:00:38.596Z,4.50
2023-04-16T23:03:06.238Z,4.50
2023-04-16T23:05:34.557Z,4.40
2023-04-16T23:08:01.992Z,4.40
2023-04-16T23:10:29.493Z,4.40
2023-04-16T23:12:56.935Z,4.30
2023-04-16T23:15:24.474Z,4.30
2023-04-16T23:17:52.096Z,4.30
2023-04-16T23:20:19.688Z,4.30
2023-04-16T23:22:47.290Z,4.30
2023-04-16T23:25:14.724Z,4.20
2023-04-16T23:27:42.146Z,4.30
2023-04-16T23:30:09.892Z,4.20
2023-04-16T23:32:37.516Z,4.20
2023-04-16T23:35:05.643Z,4.20
2023-04-16T23:37:33.063Z,4.10
2023-04-16T23:40:00.519Z,4.10
2023-04-16T23:42:28.506Z,4.00
2023-04-16T23:44:55.981Z,4.00
2023-04-16T23:47:24.646Z,3.90
2023-04-16T23:49:52.529Z,4.00
2023-04-16T23:52:20.028Z,3.90
2023-04-16T23:54:47.588Z,3.80
2023-04-16T23:57:15.527Z,3.80
2023-04-16T23:59:43.024Z,3.90
